createdAt,value
2023-04-16T00:00:34.669Z,29.333333
2023-04-16T00:05:17.110Z,28.266667
2023-04-16T00:10:20.058Z,27.933333
2023-04-16T00:15:23.357Z,27.785714
2023-04-16T00:20:26.912Z,27.800000
2023-04-16T00:25:29.906Z,26.866667
2023-04-16T00:30:32.783Z,26.600000
2023-04-16T00:35:35.525Z,27.666667
2023-04-16T00:40:17.837Z,28.600000
2023-04-16T00:45:21.430Z,27.866667
2023-04-16T00:50:24.618Z,27.214286
2023-04-16T00:55:27.440Z,27.133333
2023-04-16T01:00:30.915Z,27.866667
2023-04-16T01:05:33.782Z,28.133333
2023-04-16T01:10:16.192Z,27.733333
2023-04-16T01:15:19.214Z,29.000000
2023-04-16T01:20:22.703Z,36.285714
2023-04-16T01:25:25.527Z,38.200000
2023-04-16T01:30:28.381Z,39.133333
2023-04-16T01:35:30.623Z,38.333333
2023-04-16T01:40:33.805Z,37.266667
2023-04-16T01:45:16.271Z,38.133333
2023-04-16T01:50:18.893Z,40.133333
2023-04-16T01:55:21.416Z,39.000000
2023-04-16T02:00:23.757Z,39.000000
2023-04-16T02:05:26.304Z,41.866667
2023-04-16T02:10:28.733Z,42.666667
2023-04-16T02:15:31.858Z,42.400000
2023-04-16T02:20:34.982Z,42.800000
2023-04-16T02:25:17.569Z,42.866667
2023-04-16T02:30:20.136Z,43.600000
2023-04-16T02:35:22.828Z,43.500000
2023-04-16T02:40:25.616Z,43.533333
2023-04-16T02:45:28.186Z,43.400000
2023-04-16T02:50:31.094Z,44.333333
2023-04-16T02:55:33.927Z,43.733333
2023-04-16T03:00:16.287Z,44.666667
2023-04-16T03:05:18.631Z,45.000000
2023-04-16T03:10:21.788Z,45.533333
2023-04-16T03:15:24.698Z,46.642857
2023-04-16T03:20:27.450Z,48.133333
2023-04-16T03:25:30.654Z,49.933333
2023-04-16T03:30:33.976Z,51.200000
2023-04-16T03:35:16.806Z,52.000000
2023-04-16T03:40:20.532Z,52.600000
2023-04-16T03:45:22.269Z,53.428571
2023-04-16T03:50:24.841Z,53.800000
2023-04-16T03:55:27.627Z,54.000000
2023-04-16T04:00:30.305Z,52.200000
2023-04-16T04:05:33.206Z,52.066667
2023-04-16T04:10:35.944Z,52.933333
2023-04-16T04:15:19.082Z,53.000000
2023-04-16T04:20:21.874Z,52.466667
2023-04-16T04:25:25.677Z,53.000000
2023-04-16T04:30:28.119Z,52.933333
2023-04-16T04:35:30.807Z,53.400000
2023-04-16T04:40:33.514Z,54.133333
2023-04-16T04:45:16.109Z,54.733333
2023-04-16T04:50:18.999Z,55.000000
2023-04-16T04:55:22.140Z,55.428571
2023-04-16T05:00:24.495Z,56.733333
2023-04-16T05:05:28.110Z,56.066667
2023-04-16T05:10:30.371Z,57.000000
2023-04-16T05:15:33.218Z,57.133333
2023-04-16T05:20:36.299Z,56.733333
2023-04-16T05:25:18.665Z,56.600000
2023-04-16T05:30:20.881Z,56.866667
2023-04-16T05:35:23.566Z,57.785714
2023-04-16T05:40:26.027Z,58.066667
2023-04-16T05:45:28.360Z,59.266667
2023-04-16T05:50:30.921Z,61.133333
2023-04-16T05:55:34.068Z,62.000000
2023-04-16T06:00:16.829Z,63.400000
2023-04-16T06:05:19.914Z,62.866667
2023-04-16T06:10:22.651Z,61.928571
2023-04-16T06:15:25.225Z,61.733333
2023-04-16T06:20:27.965Z,63.933333
2023-04-16T06:25:30.937Z,63.800000
2023-04-16T06:30:33.840Z,63.200000
2023-04-16T06:35:16.928Z,64.666667
2023-04-16T06:40:20.150Z,62.733333
2023-04-16T06:45:22.824Z,60.857143
2023-04-16T06:50:25.497Z,63.133333
2023-04-16T06:55:28.427Z,66.533333
2023-04-16T07:00:30.891Z,68.000000
2023-04-16T07:05:33.625Z,67.533333
2023-04-16T07:10:16.178Z,66.000000
2023-04-16T07:15:20.628Z,65.933333
2023-04-16T07:20:22.298Z,66.642857
2023-04-16T07:25:24.924Z,68.866667
2023-04-16T07:30:27.320Z,70.266667
2023-04-16T07:35:30.707Z,71.600000
2023-04-16T07:40:33.315Z,72.000000
2023-04-16T07:45:16.273Z,72.000000
2023-04-16T07:50:19.438Z,71.733333
2023-04-16T07:55:22.061Z,72.000000
2023-04-16T08:00:24.643Z,72.000000
2023-04-16T08:05:27.764Z,71.466667
2023-04-16T08:10:30.183Z,72.000000
2023-04-16T08:15:32.660Z,72.733333
2023-04-16T08:20:34.986Z,73.400000
2023-04-16T08:25:17.682Z,74.200000
2023-04-16T08:30:21.114Z,76.000000
2023-04-16T08:35:23.589Z,78.000000
2023-04-16T08:40:26.707Z,78.800000
2023-04-16T08:45:29.232Z,79.000000
2023-04-16T08:50:31.649Z,79.000000
2023-04-16T08:55:34.057Z,79.800000
2023-04-16T09:00:16.914Z,80.400000
2023-04-16T09:05:19.948Z,81.733333
2023-04-16T09:10:22.601Z,83.000000
2023-04-16T09:15:25.092Z,83.000000
2023-04-16T09:20:27.704Z,82.133333
2023-04-16T09:25:30.348Z,83.000000
2023-04-16T09:30:32.860Z,83.000000
2023-04-16T09:35:16.067Z,83.466667
2023-04-16T09:40:18.820Z,85.000000
2023-04-16T09:45:21.470Z,85.400000
2023-04-16T09:50:24.306Z,86.214286
2023-04-16T09:55:26.988Z,86.066667
2023-04-16T10:00:29.721Z,86.066667
2023-04-16T10:05:32.527Z,86.133333
2023-04-16T10:10:35.143Z,86.066667
2023-04-16T10:15:18.168Z,86.000000
2023-04-16T10:20:21.442Z,85.000000
2023-04-16T10:25:25.170Z,84.571429
2023-04-16T10:30:27.949Z,84.000000
2023-04-16T10:35:30.582Z,84.000000
2023-04-16T10:40:33.829Z,84.000000
2023-04-16T10:45:16.287Z,84.133333
2023-04-16T10:50:19.536Z,84.000000
2023-04-16T10:55:22.222Z,84.000000
2023-04-16T11:00:24.624Z,83.642857
2023-04-16T11:05:26.709Z,83.266667
2023-04-16T11:10:29.981Z,84.000000
2023-04-16T11:15:32.716Z,84.466667
2023-04-16T11:20:35.123Z,84.066667
2023-04-16T11:25:18.817Z,84.133333
2023-04-16T11:30:21.255Z,85.000000
2023-04-16T11:35:24.100Z,85.000000
2023-04-16T11:40:26.455Z,86.266667
2023-04-16T11:45:29.440Z,87.000000
2023-04-16T11:50:32.474Z,87.933333
2023-04-16T11:55:35.078Z,88.000000
2023-04-16T12:00:17.645Z,88.266667
2023-04-16T12:05:20.242Z,89.000000
2023-04-16T12:10:22.813Z,89.000000
2023-04-16T12:15:25.732Z,89.000000
2023-04-16T12:20:28.497Z,89.000000
2023-04-16T12:25:31.409Z,89.000000
2023-04-16T12:30:33.915Z,89.000000
2023-04-16T12:35:16.678Z,89.000000
2023-04-16T12:40:20.229Z,89.000000
2023-04-16T12:45:23.293Z,89.000000
2023-04-16T12:50:25.772Z,89.000000
2023-04-16T12:55:28.457Z,89.333333
2023-04-16T13:00:31.265Z,89.733333
2023-04-16T13:05:33.872Z,89.066667
2023-04-16T13:10:16.134Z,89.066667
2023-04-16T13:15:19.069Z,90.000000
2023-04-16T13:20:24.350Z,90.000000
2023-04-16T13:25:24.649Z,89.071429
2023-04-16T13:30:27.517Z,88.466667
2023-04-16T13:35:31.100Z,87.266667
2023-04-16T13:40:34.299Z,86.533333
2023-04-16T13:45:16.706Z,86.000000
2023-04-16T13:50:20.002Z,86.000000
2023-04-16T13:55:23.226Z,84.928571
2023-04-16T14:00:26.879Z,83.333333
2023-04-16T14:05:30.967Z,83.133333
2023-04-16T14:10:34.139Z,83.333333
2023-04-16T14:15:17.017Z,83.066667
2023-04-16T14:20:32.442Z,83.066667
2023-04-16T14:25:24.195Z,82.000000
2023-04-16T14:30:27.794Z,81.000000
2023-04-16T14:35:30.809Z,81.866667
2023-04-16T14:40:33.504Z,81.266667
2023-04-16T14:45:16.120Z,80.200000
2023-04-16T14:50:19.011Z,79.733333
2023-04-16T14:55:21.639Z,79.733333
2023-04-16T15:00:23.889Z,78.642857
2023-04-16T15:05:26.898Z,76.533333
2023-04-16T15:10:29.608Z,74.333333
2023-04-16T15:15:32.816Z,70.666667
2023-04-16T15:20:35.904Z,70.266667
2023-04-16T15:25:17.975Z,69.466667
2023-04-16T15:30:20.817Z,68.933333
2023-04-16T15:35:24.584Z,69.714286
2023-04-16T15:40:26.148Z,70.400000
2023-04-16T15:45:28.676Z,68.666667
2023-04-16T15:50:31.141Z,67.200000
2023-04-16T15:55:35.709Z,65.666667
2023-04-16T16:00:16.957Z,63.133333
2023-04-16T16:05:20.443Z,62.333333
2023-04-16T16:10:23.272Z,62.357143
2023-04-16T16:15:27.412Z,58.066667
2023-04-16T16:20:29.587Z,54.666667
2023-04-16T16:25:33.014Z,54.666667
2023-04-16T16:30:35.792Z,52.866667
2023-04-16T16:35:18.110Z,51.866667
2023-04-16T16:40:20.696Z,51.733333
2023-04-16T16:45:24.425Z,50.142857
2023-04-16T16:50:27.579Z,49.733333
2023-04-16T16:55:30.647Z,47.933333
2023-04-16T17:00:34.076Z,47.066667
2023-04-16T17:05:16.609Z,47.200000
2023-04-16T17:10:19.406Z,45.133333
2023-04-16T17:15:22.215Z,44.214286
2023-04-16T17:20:25.687Z,44.266667
2023-04-16T17:25:28.371Z,44.000000
2023-04-16T17:30:31.726Z,44.200000
2023-04-16T17:35:15.927Z,45.200000
2023-04-16T17:40:17.622Z,44.800000
2023-04-16T17:45:20.523Z,44.933333
2023-04-16T17:50:23.080Z,45.428571
2023-04-16T17:55:26.088Z,45.200000
2023-04-16T18:00:28.916Z,43.666667
2023-04-16T18:05:31.896Z,43.133333
2023-04-16T18:10:35.310Z,42.200000
2023-04-16T18:15:18.021Z,42.400000
2023-04-16T18:20:22.289Z,43.214286
2023-04-16T18:25:33.929Z,41.733333
2023-04-16T18:30:28.257Z,40.933333
2023-04-16T18:35:30.982Z,39.533333
2023-04-16T18:40:33.821Z,35.666667
2023-04-16T18:45:21.089Z,33.666667
2023-04-16T18:50:18.509Z,35.533333
2023-04-16T18:55:21.406Z,32.000000
2023-04-16T19:00:23.917Z,31.000000
2023-04-16T19:05:26.804Z,30.333333
2023-04-16T19:10:29.614Z,31.000000
2023-04-16T19:15:33.801Z,31.400000
2023-04-16T19:20:35.243Z,30.866667
2023-04-16T19:25:17.462Z,30.800000
2023-04-16T19:30:20.607Z,29.866667
2023-04-16T19:35:23.948Z,30.857143
2023-04-16T19:40:26.357Z,31.000000
2023-04-16T19:45:28.942Z,31.466667
2023-04-16T19:50:32.218Z,31.066667
2023-04-16T19:55:34.817Z,30.200000
2023-04-16T20:00:17.198Z,29.733333
2023-04-16T20:05:19.941Z,29.400000
2023-04-16T20:10:22.540Z,28.857143
2023-04-16T20:15:25.441Z,28.600000
2023-04-16T20:20:28.454Z,27.800000
2023-04-16T20:25:32.158Z,27.466667
2023-04-16T20:30:35.270Z,28.866667
2023-04-16T20:35:18.072Z,27.600000
2023-04-16T20:40:21.035Z,27.200000
2023-04-16T20:45:24.581Z,27.714286
2023-04-16T20:50:26.875Z,27.800000
2023-04-16T20:55:29.443Z,27.666667
2023-04-16T21:00:32.138Z,25.933333
2023-04-16T21:05:35.230Z,26.800000
2023-04-16T21:10:17.793Z,28.133333
2023-04-16T21:15:20.482Z,29.133333
2023-04-16T21:20:23.218Z,27.357143
2023-04-16T21:25:25.469Z,27.066667
2023-04-16T21:30:28.397Z,26.666667
2023-04-16T21:35:30.656Z,28.266667
2023-04-16T21:40:34.257Z,27.800000
2023-04-16T21:45:17.319Z,25.933333
2023-04-16T21:50:20.189Z,27.733333
2023-04-16T21:55:22.887Z,28.571429
2023-04-16T22:00:25.830Z,25.933333
2023-04-16T22:05:28.265Z,26.000000
2023-04-16T22:10:31.873Z,25.933333
2023-04-16T22:15:35.631Z,25.133333
2023-04-16T22:20:18.706Z,26.066667
2023-04-16T22:25:21.219Z,27.400000
2023-04-16T22:30:24.268Z,26.857143
2023-04-16T22:35:27.014Z,27.133333
2023-04-16T22:40:29.543Z,28.066667
2023-04-16T22:45:32.162Z,27.600000
2023-04-16T22:50:34.350Z,25.600000
2023-04-16T22:55:16.823Z,25.533333
2023-04-16T23:00:19.879Z,27.466667
2023-04-16T23:05:22.616Z,26.857143
2023-04-16T23:10:25.295Z,27.733333
2023-04-16T23:15:27.410Z,26.600000
2023-04-16T23:20:30.014Z,26.066667
2023-04-16T23:25:33.032Z,25.800000
2023-04-16T23:30:36.146Z,25.933333
2023-04-16T23:35:17.992Z,26.600000
2023-04-16T23:40:20.944Z,26.533333
2023-04-16T23:45:24.094Z,26.357143
2023-04-16T23:50:27.024Z,26.666667
2023-04-16T23:55:30.364Z,27.666667
